sensor_id;sensor_type;location;lat;lon;timestamp;P1;durP1;ratioP1;P2;durP2;ratioP2
34565;SDS011;20803;42.676;26.348;2022-10-17T00:01:38;3.87;;;2.70;;
34565;SDS011;20803;42.676;26.348;2022-10-17T00:04:03;8.27;;;3.70;;
34565;SDS011;20803;42.676;26.348;2022-10-17T00:06:29;5.33;;;3.20;;
34565;SDS011;20803;42.676;26.348;2022-10-17T00:08:54;4.33;;;3.40;;
34565;SDS011;20803;42.676;26.348;2022-10-17T00:11:21;6.20;;;3.20;;
34565;SDS011;20803;42.676;26.348;2022-10-17T00:13:48;8.97;;;3.37;;
34565;SDS011;20803;42.676;26.348;2022-10-17T00:16:21;4.13;;;2.93;;
34565;SDS011;20803;42.676;26.348;2022-10-17T00:18:51;6.73;;;3.10;;
34565;SDS011;20803;42.676;26.348;2022-10-17T00:21:17;5.10;;;3.40;;
34565;SDS011;20803;42.676;26.348;2022-10-17T00:23:44;4.93;;;3.10;;
34565;SDS011;20803;42.676;26.348;2022-10-17T00:26:09;5.83;;;3.17;;
34565;SDS011;20803;42.676;26.348;2022-10-17T00:28:35;9.23;;;3.63;;
34565;SDS011;20803;42.676;26.348;2022-10-17T00:31:01;5.27;;;3.37;;
34565;SDS011;20803;42.676;26.348;2022-10-17T00:33:28;3.83;;;3.23;;
34565;SDS011;20803;42.676;26.348;2022-10-17T00:36:02;5.83;;;3.47;;
34565;SDS011;20803;42.676;26.348;2022-10-17T00:38:55;4.10;;;3.07;;
34565;SDS011;20803;42.676;26.348;2022-10-17T00:41:24;4.00;;;2.90;;
34565;SDS011;20803;42.676;26.348;2022-10-17T00:46:16;6.97;;;3.27;;
34565;SDS011;20803;42.676;26.348;2022-10-17T00:48:43;7.30;;;3.27;;
34565;SDS011;20803;42.676;26.348;2022-10-17T00:51:09;8.40;;;2.90;;
34565;SDS011;20803;42.676;26.348;2022-10-17T00:53:35;9.67;;;3.47;;
34565;SDS011;20803;42.676;26.348;2022-10-17T00:56:01;8.87;;;4.43;;
34565;SDS011;20803;42.676;26.348;2022-10-17T00:58:27;7.70;;;4.33;;
34565;SDS011;20803;42.676;26.348;2022-10-17T01:00:52;3.67;;;3.10;;
34565;SDS011;20803;42.676;26.348;2022-10-17T01:03:18;5.13;;;3.50;;
34565;SDS011;20803;42.676;26.348;2022-10-17T01:05:43;8.30;;;4.27;;
34565;SDS011;20803;42.676;26.348;2022-10-17T01:08:10;5.40;;;3.77;;
34565;SDS011;20803;42.676;26.348;2022-10-17T01:10:44;7.50;;;4.17;;
34565;SDS011;20803;42.676;26.348;2022-10-17T01:13:29;4.93;;;3.70;;
34565;SDS011;20803;42.676;26.348;2022-10-17T01:29:48;5.30;;;3.47;;
34565;SDS011;20803;42.676;26.348;2022-10-17T01:38:05;4.53;;;3.53;;
34565;SDS011;20803;42.676;26.348;2022-10-17T01:40:48;4.63;;;3.37;;
34565;SDS011;20803;42.676;26.348;2022-10-17T01:43:29;11.97;;;3.77;;
34565;SDS011;20803;42.676;26.348;2022-10-17T01:46:04;9.73;;;3.73;;
34565;SDS011;20803;42.676;26.348;2022-10-17T01:48:36;7.67;;;4.23;;
34565;SDS011;20803;42.676;26.348;2022-10-17T01:51:07;9.27;;;3.87;;
34565;SDS011;20803;42.676;26.348;2022-10-17T01:53:42;4.13;;;3.27;;
34565;SDS011;20803;42.676;26.348;2022-10-17T01:56:24;6.83;;;3.87;;
34565;SDS011;20803;42.676;26.348;2022-10-17T01:58:55;8.57;;;4.33;;
34565;SDS011;20803;42.676;26.348;2022-10-17T02:01:25;5.20;;;3.77;;
34565;SDS011;20803;42.676;26.348;2022-10-17T02:03:54;4.87;;;3.70;;
34565;SDS011;20803;42.676;26.348;2022-10-17T02:06:21;6.73;;;4.07;;
34565;SDS011;20803;42.676;26.348;2022-10-17T02:08:47;4.93;;;3.80;;
34565;SDS011;20803;42.676;26.348;2022-10-17T02:11:17;7.00;;;4.23;;
34565;SDS011;20803;42.676;26.348;2022-10-17T02:14:03;16.23;;;4.43;;
34565;SDS011;20803;42.676;26.348;2022-10-17T02:28:03;6.30;;;3.70;;
34565;SDS011;20803;42.676;26.348;2022-10-17T02:30:36;6.90;;;4.67;;
34565;SDS011;20803;42.676;26.348;2022-10-17T02:33:08;10.77;;;4.23;;
34565;SDS011;20803;42.676;26.348;2022-10-17T02:35:40;9.47;;;4.03;;
34565;SDS011;20803;42.676;26.348;2022-10-17T02:38:10;6.90;;;4.40;;
34565;SDS011;20803;42.676;26.348;2022-10-17T02:40:36;8.33;;;4.30;;
34565;SDS011;20803;42.676;26.348;2022-10-17T02:43:04;12.00;;;4.50;;
34565;SDS011;20803;42.676;26.348;2022-10-17T02:45:30;7.97;;;4.17;;
34565;SDS011;20803;42.676;26.348;2022-10-17T02:48:04;19.20;;;4.53;;
34565;SDS011;20803;42.676;26.348;2022-10-17T02:53:49;6.67;;;4.67;;
34565;SDS011;20803;42.676;26.348;2022-10-17T02:56:19;6.47;;;4.40;;
34565;SDS011;20803;42.676;26.348;2022-10-17T02:58:46;10.00;;;5.03;;
34565;SDS011;20803;42.676;26.348;2022-10-17T03:01:16;4.80;;;4.20;;
34565;SDS011;20803;42.676;26.348;2022-10-17T03:03:43;6.43;;;3.60;;
34565;SDS011;20803;42.676;26.348;2022-10-17T03:06:08;6.37;;;4.27;;
34565;SDS011;20803;42.676;26.348;2022-10-17T03:08:34;6.27;;;4.60;;
34565;SDS011;20803;42.676;26.348;2022-10-17T03:10:59;6.97;;;4.13;;
34565;SDS011;20803;42.676;26.348;2022-10-17T03:13:25;10.37;;;4.50;;
34565;SDS011;20803;42.676;26.348;2022-10-17T03:15:50;12.00;;;4.47;;
34565;SDS011;20803;42.676;26.348;2022-10-17T03:18:15;4.87;;;3.53;;
34565;SDS011;20803;42.676;26.348;2022-10-17T03:20:41;11.80;;;4.27;;
34565;SDS011;20803;42.676;26.348;2022-10-17T03:23:06;10.33;;;4.87;;
34565;SDS011;20803;42.676;26.348;2022-10-17T03:25:32;11.27;;;4.83;;
34565;SDS011;20803;42.676;26.348;2022-10-17T03:28:00;10.47;;;4.50;;
34565;SDS011;20803;42.676;26.348;2022-10-17T03:30:27;13.20;;;5.37;;
34565;SDS011;20803;42.676;26.348;2022-10-17T03:32:53;6.13;;;4.30;;
34565;SDS011;20803;42.676;26.348;2022-10-17T03:35:18;12.97;;;4.57;;
34565;SDS011;20803;42.676;26.348;2022-10-17T03:37:44;7.30;;;3.97;;
34565;SDS011;20803;42.676;26.348;2022-10-17T03:40:09;13.57;;;4.53;;
34565;SDS011;20803;42.676;26.348;2022-10-17T03:42:35;12.83;;;4.53;;
34565;SDS011;20803;42.676;26.348;2022-10-17T03:45:00;9.10;;;5.03;;
34565;SDS011;20803;42.676;26.348;2022-10-17T03:47:26;10.20;;;5.03;;
34565;SDS011;20803;42.676;26.348;2022-10-17T03:49:52;8.50;;;4.40;;
34565;SDS011;20803;42.676;26.348;2022-10-17T03:52:18;16.47;;;4.87;;
34565;SDS011;20803;42.676;26.348;2022-10-17T03:54:44;8.57;;;4.90;;
34565;SDS011;20803;42.676;26.348;2022-10-17T03:57:09;11.00;;;5.27;;
34565;SDS011;20803;42.676;26.348;2022-10-17T03:59:35;13.30;;;6.77;;
34565;SDS011;20803;42.676;26.348;2022-10-17T04:02:00;14.63;;;4.90;;
34565;SDS011;20803;42.676;26.348;2022-10-17T04:04:25;9.80;;;4.83;;
34565;SDS011;20803;42.676;26.348;2022-10-17T04:06:51;9.80;;;4.40;;
34565;SDS011;20803;42.676;26.348;2022-10-17T04:09:16;10.93;;;5.03;;
34565;SDS011;20803;42.676;26.348;2022-10-17T04:11:42;15.63;;;4.53;;
34565;SDS011;20803;42.676;26.348;2022-10-17T04:14:08;10.30;;;5.10;;
34565;SDS011;20803;42.676;26.348;2022-10-17T04:16:33;14.57;;;4.83;;
34565;SDS011;20803;42.676;26.348;2022-10-17T04:18:59;11.30;;;4.20;;
34565;SDS011;20803;42.676;26.348;2022-10-17T04:21:25;5.90;;;3.30;;
34565;SDS011;20803;42.676;26.348;2022-10-17T04:23:56;8.47;;;4.50;;
34565;SDS011;20803;42.676;26.348;2022-10-17T04:26:22;7.97;;;4.57;;
34565;SDS011;20803;42.676;26.348;2022-10-17T04:28:48;9.53;;;4.10;;
34565;SDS011;20803;42.676;26.348;2022-10-17T04:31:15;10.17;;;5.20;;
34565;SDS011;20803;42.676;26.348;2022-10-17T04:33:40;8.43;;;5.30;;
34565;SDS011;20803;42.676;26.348;2022-10-17T04:36:09;7.63;;;3.90;;
34565;SDS011;20803;42.676;26.348;2022-10-17T04:38:35;7.37;;;4.20;;
34565;SDS011;20803;42.676;26.348;2022-10-17T04:41:02;8.47;;;4.30;;
34565;SDS011;20803;42.676;26.348;2022-10-17T04:43:30;11.03;;;4.20;;
34565;SDS011;20803;42.676;26.348;2022-10-17T04:45:57;6.97;;;4.50;;
34565;SDS011;20803;42.676;26.348;2022-10-17T04:48:23;9.53;;;3.97;;
34565;SDS011;20803;42.676;26.348;2022-10-17T04:50:52;8.23;;;4.03;;
34565;SDS011;20803;42.676;26.348;2022-10-17T04:53:19;7.13;;;4.37;;
34565;SDS011;20803;42.676;26.348;2022-10-17T04:55:44;9.17;;;4.27;;
34565;SDS011;20803;42.676;26.348;2022-10-17T04:58:10;17.43;;;5.37;;
34565;SDS011;20803;42.676;26.348;2022-10-17T05:00:35;6.67;;;4.53;;
34565;SDS011;20803;42.676;26.348;2022-10-17T05:03:00;6.87;;;3.73;;
34565;SDS011;20803;42.676;26.348;2022-10-17T05:05:26;5.93;;;4.37;;
34565;SDS011;20803;42.676;26.348;2022-10-17T05:07:51;6.93;;;3.97;;
34565;SDS011;20803;42.676;26.348;2022-10-17T05:10:17;7.40;;;4.17;;
34565;SDS011;20803;42.676;26.348;2022-10-17T05:12:42;5.47;;;3.87;;
34565;SDS011;20803;42.676;26.348;2022-10-17T05:15:08;7.50;;;3.90;;
34565;SDS011;20803;42.676;26.348;2022-10-17T05:17:33;7.63;;;4.13;;
34565;SDS011;20803;42.676;26.348;2022-10-17T05:19:59;7.20;;;3.77;;
34565;SDS011;20803;42.676;26.348;2022-10-17T05:22:24;11.13;;;5.03;;
34565;SDS011;20803;42.676;26.348;2022-10-17T05:24:50;22.07;;;5.97;;
34565;SDS011;20803;42.676;26.348;2022-10-17T05:27:15;13.10;;;5.27;;
34565;SDS011;20803;42.676;26.348;2022-10-17T05:29:40;13.27;;;5.47;;
34565;SDS011;20803;42.676;26.348;2022-10-17T05:32:06;8.37;;;4.63;;
34565;SDS011;20803;42.676;26.348;2022-10-17T05:34:32;11.67;;;5.67;;
34565;SDS011;20803;42.676;26.348;2022-10-17T05:36:58;8.27;;;5.10;;
34565;SDS011;20803;42.676;26.348;2022-10-17T05:39:23;8.67;;;4.97;;
34565;SDS011;20803;42.676;26.348;2022-10-17T05:41:49;8.37;;;4.83;;
34565;SDS011;20803;42.676;26.348;2022-10-17T05:44:16;7.87;;;4.43;;
34565;SDS011;20803;42.676;26.348;2022-10-17T05:46:42;11.30;;;4.97;;
34565;SDS011;20803;42.676;26.348;2022-10-17T05:49:08;11.20;;;4.40;;
34565;SDS011;20803;42.676;26.348;2022-10-17T05:51:34;6.17;;;3.73;;
34565;SDS011;20803;42.676;26.348;2022-10-17T05:53:59;10.50;;;4.63;;
34565;SDS011;20803;42.676;26.348;2022-10-17T05:56:25;7.53;;;4.33;;
34565;SDS011;20803;42.676;26.348;2022-10-17T05:58:50;14.87;;;4.97;;
34565;SDS011;20803;42.676;26.348;2022-10-17T06:01:16;12.17;;;5.67;;
34565;SDS011;20803;42.676;26.348;2022-10-17T06:03:41;10.37;;;4.30;;
34565;SDS011;20803;42.676;26.348;2022-10-17T06:06:08;12.47;;;3.97;;
34565;SDS011;20803;42.676;26.348;2022-10-17T06:08:36;8.60;;;3.27;;
34565;SDS011;20803;42.676;26.348;2022-10-17T06:11:01;12.47;;;4.27;;
34565;SDS011;20803;42.676;26.348;2022-10-17T06:13:27;8.80;;;3.80;;
34565;SDS011;20803;42.676;26.348;2022-10-17T06:15:52;7.57;;;3.23;;
34565;SDS011;20803;42.676;26.348;2022-10-17T06:18:18;5.13;;;3.40;;
34565;SDS011;20803;42.676;26.348;2022-10-17T06:20:43;11.00;;;5.63;;
34565;SDS011;20803;42.676;26.348;2022-10-17T06:23:08;8.53;;;4.63;;
34565;SDS011;20803;42.676;26.348;2022-10-17T06:25:34;4.03;;;3.10;;
34565;SDS011;20803;42.676;26.348;2022-10-17T06:27:59;5.37;;;3.00;;
34565;SDS011;20803;42.676;26.348;2022-10-17T06:30:25;5.97;;;2.87;;
34565;SDS011;20803;42.676;26.348;2022-10-17T06:32:51;4.73;;;3.47;;
34565;SDS011;20803;42.676;26.348;2022-10-17T06:35:17;5.27;;;3.30;;
34565;SDS011;20803;42.676;26.348;2022-10-17T06:37:42;4.77;;;3.20;;
34565;SDS011;20803;42.676;26.348;2022-10-17T06:40:08;6.47;;;3.17;;
34565;SDS011;20803;42.676;26.348;2022-10-17T06:42:35;3.80;;;2.70;;
34565;SDS011;20803;42.676;26.348;2022-10-17T06:45:01;4.00;;;2.73;;
34565;SDS011;20803;42.676;26.348;2022-10-17T06:47:27;4.47;;;2.73;;
34565;SDS011;20803;42.676;26.348;2022-10-17T06:49:52;4.23;;;2.60;;
34565;SDS011;20803;42.676;26.348;2022-10-17T06:52:18;3.47;;;2.87;;
34565;SDS011;20803;42.676;26.348;2022-10-17T06:54:43;2.73;;;2.53;;
34565;SDS011;20803;42.676;26.348;2022-10-17T06:57:09;5.37;;;2.80;;
34565;SDS011;20803;42.676;26.348;2022-10-17T06:59:34;4.53;;;2.53;;
34565;SDS011;20803;42.676;26.348;2022-10-17T07:02:00;4.23;;;2.77;;
34565;SDS011;20803;42.676;26.348;2022-10-17T07:04:26;5.20;;;2.67;;
34565;SDS011;20803;42.676;26.348;2022-10-17T07:06:52;14.37;;;2.93;;
34565;SDS011;20803;42.676;26.348;2022-10-17T07:09:17;4.73;;;2.83;;
34565;SDS011;20803;42.676;26.348;2022-10-17T07:11:43;4.17;;;2.63;;
34565;SDS011;20803;42.676;26.348;2022-10-17T07:14:09;3.67;;;2.90;;
34565;SDS011;20803;42.676;26.348;2022-10-17T07:16:35;2.97;;;2.67;;
34565;SDS011;20803;42.676;26.348;2022-10-17T07:19:00;4.93;;;2.87;;
34565;SDS011;20803;42.676;26.348;2022-10-17T07:21:25;4.67;;;2.57;;
34565;SDS011;20803;42.676;26.348;2022-10-17T07:23:51;4.80;;;2.50;;
34565;SDS011;20803;42.676;26.348;2022-10-17T07:26:17;4.30;;;2.73;;
34565;SDS011;20803;42.676;26.348;2022-10-17T07:28:44;7.77;;;2.60;;
34565;SDS011;20803;42.676;26.348;2022-10-17T07:31:12;2.87;;;2.50;;
34565;SDS011;20803;42.676;26.348;2022-10-17T07:33:39;4.73;;;3.50;;
34565;SDS011;20803;42.676;26.348;2022-10-17T07:36:06;7.27;;;3.07;;
34565;SDS011;20803;42.676;26.348;2022-10-17T07:38:32;3.50;;;2.60;;
34565;SDS011;20803;42.676;26.348;2022-10-17T07:40:59;6.40;;;2.60;;
34565;SDS011;20803;42.676;26.348;2022-10-17T07:43:25;4.20;;;2.67;;
34565;SDS011;20803;42.676;26.348;2022-10-17T07:45:51;4.03;;;2.50;;
34565;SDS011;20803;42.676;26.348;2022-10-17T07:48:19;5.27;;;2.80;;
34565;SDS011;20803;42.676;26.348;2022-10-17T07:50:46;3.30;;;2.77;;
34565;SDS011;20803;42.676;26.348;2022-10-17T07:53:12;3.10;;;2.60;;
34565;SDS011;20803;42.676;26.348;2022-10-17T07:55:38;2.53;;;2.20;;
34565;SDS011;20803;42.676;26.348;2022-10-17T07:58:05;8.37;;;2.90;;
34565;SDS011;20803;42.676;26.348;2022-10-17T08:00:31;4.40;;;3.00;;
34565;SDS011;20803;42.676;26.348;2022-10-17T08:02:56;5.53;;;2.90;;
34565;SDS011;20803;42.676;26.348;2022-10-17T08:05:21;4.47;;;2.60;;
34565;SDS011;20803;42.676;26.348;2022-10-17T08:07:47;5.90;;;2.90;;
34565;SDS011;20803;42.676;26.348;2022-10-17T08:10:13;7.70;;;2.80;;
34565;SDS011;20803;42.676;26.348;2022-10-17T08:12:40;5.33;;;2.73;;
34565;SDS011;20803;42.676;26.348;2022-10-17T08:15:06;6.40;;;2.83;;
34565;SDS011;20803;42.676;26.348;2022-10-17T08:17:35;7.30;;;3.50;;
34565;SDS011;20803;42.676;26.348;2022-10-17T08:20:02;6.17;;;3.07;;
34565;SDS011;20803;42.676;26.348;2022-10-17T08:22:31;4.53;;;3.40;;
34565;SDS011;20803;42.676;26.348;2022-10-17T08:24:57;5.40;;;2.63;;
34565;SDS011;20803;42.676;26.348;2022-10-17T08:27:22;4.47;;;2.70;;
34565;SDS011;20803;42.676;26.348;2022-10-17T08:29:52;3.53;;;2.90;;
34565;SDS011;20803;42.676;26.348;2022-10-17T08:32:18;5.60;;;3.17;;
34565;SDS011;20803;42.676;26.348;2022-10-17T08:34:45;5.87;;;3.30;;
34565;SDS011;20803;42.676;26.348;2022-10-17T08:37:11;6.93;;;3.53;;
34565;SDS011;20803;42.676;26.348;2022-10-17T08:39:38;4.63;;;3.03;;
34565;SDS011;20803;42.676;26.348;2022-10-17T08:44:38;7.07;;;2.90;;
34565;SDS011;20803;42.676;26.348;2022-10-17T08:47:20;4.17;;;2.93;;
34565;SDS011;20803;42.676;26.348;2022-10-17T08:49:58;6.40;;;2.77;;
34565;SDS011;20803;42.676;26.348;2022-10-17T08:52:40;5.70;;;3.20;;
34565;SDS011;20803;42.676;26.348;2022-10-17T08:55:15;3.80;;;3.07;;
34565;SDS011;20803;42.676;26.348;2022-10-17T08:57:42;4.93;;;2.97;;
34565;SDS011;20803;42.676;26.348;2022-10-17T09:00:16;3.17;;;2.83;;
34565;SDS011;20803;42.676;26.348;2022-10-17T09:05:41;5.50;;;2.90;;
34565;SDS011;20803;42.676;26.348;2022-10-17T09:11:17;7.77;;;3.57;;
34565;SDS011;20803;42.676;26.348;2022-10-17T09:21:50;4.53;;;2.83;;
34565;SDS011;20803;42.676;26.348;2022-10-17T09:27:17;6.47;;;3.13;;
34565;SDS011;20803;42.676;26.348;2022-10-17T09:30:14;5.53;;;2.77;;
34565;SDS011;20803;42.676;26.348;2022-10-17T09:32:46;4.20;;;3.00;;
34565;SDS011;20803;42.676;26.348;2022-10-17T09:35:15;4.57;;;3.17;;
34565;SDS011;20803;42.676;26.348;2022-10-17T09:37:41;3.10;;;2.67;;
34565;SDS011;20803;42.676;26.348;2022-10-17T09:40:11;3.80;;;2.73;;
34565;SDS011;20803;42.676;26.348;2022-10-17T09:42:46;6.30;;;3.50;;
34565;SDS011;20803;42.676;26.348;2022-10-17T09:45:18;4.30;;;3.10;;
34565;SDS011;20803;42.676;26.348;2022-10-17T09:50:21;4.00;;;2.90;;
34565;SDS011;20803;42.676;26.348;2022-10-17T09:52:52;3.97;;;2.63;;
34565;SDS011;20803;42.676;26.348;2022-10-17T09:55:35;7.47;;;2.80;;
34565;SDS011;20803;42.676;26.348;2022-10-17T09:58:04;8.60;;;3.37;;
34565;SDS011;20803;42.676;26.348;2022-10-17T10:00:35;5.13;;;2.67;;
34565;SDS011;20803;42.676;26.348;2022-10-17T10:05:41;4.67;;;2.37;;
34565;SDS011;20803;42.676;26.348;2022-10-17T10:08:16;3.40;;;2.70;;
34565;SDS011;20803;42.676;26.348;2022-10-17T10:10:43;3.87;;;2.80;;
34565;SDS011;20803;42.676;26.348;2022-10-17T10:15:38;5.73;;;2.90;;
34565;SDS011;20803;42.676;26.348;2022-10-17T10:20:52;4.70;;;3.20;;
34565;SDS011;20803;42.676;26.348;2022-10-17T10:23:41;3.90;;;2.30;;
34565;SDS011;20803;42.676;26.348;2022-10-17T10:26:19;6.13;;;2.80;;
34565;SDS011;20803;42.676;26.348;2022-10-17T10:28:56;3.60;;;2.57;;
34565;SDS011;20803;42.676;26.348;2022-10-17T10:31:26;4.20;;;2.50;;
34565;SDS011;20803;42.676;26.348;2022-10-17T10:33:54;6.17;;;2.80;;
34565;SDS011;20803;42.676;26.348;2022-10-17T10:36:20;2.70;;;2.50;;
34565;SDS011;20803;42.676;26.348;2022-10-17T10:38:51;6.97;;;3.00;;
34565;SDS011;20803;42.676;26.348;2022-10-17T10:41:19;4.40;;;2.53;;
34565;SDS011;20803;42.676;26.348;2022-10-17T10:43:45;4.50;;;2.10;;
34565;SDS011;20803;42.676;26.348;2022-10-17T10:48:58;5.57;;;2.50;;
34565;SDS011;20803;42.676;26.348;2022-10-17T10:51:29;4.23;;;2.50;;
34565;SDS011;20803;42.676;26.348;2022-10-17T10:54:02;5.60;;;3.00;;
34565;SDS011;20803;42.676;26.348;2022-10-17T10:56:42;4.50;;;2.80;;
34565;SDS011;20803;42.676;26.348;2022-10-17T11:02:17;5.53;;;2.67;;
34565;SDS011;20803;42.676;26.348;2022-10-17T11:04:50;12.93;;;3.43;;
34565;SDS011;20803;42.676;26.348;2022-10-17T11:07:22;6.77;;;3.30;;
34565;SDS011;20803;42.676;26.348;2022-10-17T11:12:30;6.47;;;2.70;;
34565;SDS011;20803;42.676;26.348;2022-10-17T11:17:51;3.30;;;2.60;;
34565;SDS011;20803;42.676;26.348;2022-10-17T11:20:27;3.97;;;2.77;;
34565;SDS011;20803;42.676;26.348;2022-10-17T11:23:00;2.90;;;2.53;;
34565;SDS011;20803;42.676;26.348;2022-10-17T11:25:49;4.97;;;2.70;;
34565;SDS011;20803;42.676;26.348;2022-10-17T11:28:17;4.50;;;3.00;;
34565;SDS011;20803;42.676;26.348;2022-10-17T11:31:28;2.93;;;2.40;;
34565;SDS011;20803;42.676;26.348;2022-10-17T11:36:33;4.57;;;2.70;;
34565;SDS011;20803;42.676;26.348;2022-10-17T11:41:53;4.00;;;2.73;;
34565;SDS011;20803;42.676;26.348;2022-10-17T11:46:55;3.90;;;2.43;;
34565;SDS011;20803;42.676;26.348;2022-10-17T11:49:27;4.13;;;2.83;;
34565;SDS011;20803;42.676;26.348;2022-10-17T11:52:18;7.93;;;2.80;;
34565;SDS011;20803;42.676;26.348;2022-10-17T11:54:57;5.13;;;2.53;;
34565;SDS011;20803;42.676;26.348;2022-10-17T11:57:31;4.23;;;3.00;;
34565;SDS011;20803;42.676;26.348;2022-10-17T12:08:33;3.90;;;2.97;;
34565;SDS011;20803;42.676;26.348;2022-10-17T12:13:48;3.53;;;2.80;;
34565;SDS011;20803;42.676;26.348;2022-10-17T12:18:44;3.60;;;2.57;;
34565;SDS011;20803;42.676;26.348;2022-10-17T12:21:14;3.07;;;2.23;;
34565;SDS011;20803;42.676;26.348;2022-10-17T12:23:40;5.10;;;2.40;;
34565;SDS011;20803;42.676;26.348;2022-10-17T12:26:16;3.20;;;2.50;;
34565;SDS011;20803;42.676;26.348;2022-10-17T12:28:52;3.00;;;2.47;;
34565;SDS011;20803;42.676;26.348;2022-10-17T12:33:49;3.50;;;2.63;;
34565;SDS011;20803;42.676;26.348;2022-10-17T12:49:52;6.07;;;2.73;;
34565;SDS011;20803;42.676;26.348;2022-10-17T12:52:23;4.93;;;2.97;;
34565;SDS011;20803;42.676;26.348;2022-10-17T12:55:16;3.90;;;2.60;;
34565;SDS011;20803;42.676;26.348;2022-10-17T12:57:46;3.13;;;2.60;;
34565;SDS011;20803;42.676;26.348;2022-10-17T13:03:27;4.93;;;2.37;;
34565;SDS011;20803;42.676;26.348;2022-10-17T13:05:54;17.73;;;3.17;;
34565;SDS011;20803;42.676;26.348;2022-10-17T13:08:26;3.93;;;2.70;;
34565;SDS011;20803;42.676;26.348;2022-10-17T13:10:58;9.13;;;3.30;;
34565;SDS011;20803;42.676;26.348;2022-10-17T13:19:11;6.60;;;3.07;;
34565;SDS011;20803;42.676;26.348;2022-10-17T13:21:38;3.07;;;2.67;;
34565;SDS011;20803;42.676;26.348;2022-10-17T13:24:25;2.80;;;2.50;;
34565;SDS011;20803;42.676;26.348;2022-10-17T13:26:56;6.57;;;2.87;;
34565;SDS011;20803;42.676;26.348;2022-10-17T13:29:21;5.90;;;3.20;;
34565;SDS011;20803;42.676;26.348;2022-10-17T13:31:52;7.07;;;3.10;;
34565;SDS011;20803;42.676;26.348;2022-10-17T13:34:20;8.00;;;3.50;;
34565;SDS011;20803;42.676;26.348;2022-10-17T13:36:52;5.90;;;3.83;;
34565;SDS011;20803;42.676;26.348;2022-10-17T13:39:24;5.73;;;2.83;;
34565;SDS011;20803;42.676;26.348;2022-10-17T13:41:54;3.90;;;2.40;;
34565;SDS011;20803;42.676;26.348;2022-10-17T13:44:21;10.00;;;2.93;;
34565;SDS011;20803;42.676;26.348;2022-10-17T13:46:49;8.07;;;3.07;;
34565;SDS011;20803;42.676;26.348;2022-10-17T13:49:33;11.33;;;2.80;;
34565;SDS011;20803;42.676;26.348;2022-10-17T13:52:12;4.70;;;2.73;;
34565;SDS011;20803;42.676;26.348;2022-10-17T13:54:42;7.30;;;2.77;;
34565;SDS011;20803;42.676;26.348;2022-10-17T13:57:17;6.43;;;2.70;;
34565;SDS011;20803;42.676;26.348;2022-10-17T13:59:48;3.13;;;2.60;;
34565;SDS011;20803;42.676;26.348;2022-10-17T14:02:18;4.60;;;2.90;;
34565;SDS011;20803;42.676;26.348;2022-10-17T14:04:45;4.70;;;2.80;;
34565;SDS011;20803;42.676;26.348;2022-10-17T14:07:32;4.00;;;3.00;;
34565;SDS011;20803;42.676;26.348;2022-10-17T14:10:04;4.70;;;2.80;;
34565;SDS011;20803;42.676;26.348;2022-10-17T14:12:31;5.07;;;2.87;;
34565;SDS011;20803;42.676;26.348;2022-10-17T14:14:58;3.27;;;2.90;;
34565;SDS011;20803;42.676;26.348;2022-10-17T14:17:29;4.97;;;3.17;;
34565;SDS011;20803;42.676;26.348;2022-10-17T14:19:56;3.90;;;3.00;;
34565;SDS011;20803;42.676;26.348;2022-10-17T14:22:28;5.80;;;3.27;;
34565;SDS011;20803;42.676;26.348;2022-10-17T14:24:57;3.43;;;3.00;;
34565;SDS011;20803;42.676;26.348;2022-10-17T14:27:36;7.23;;;3.13;;
34565;SDS011;20803;42.676;26.348;2022-10-17T14:30:27;3.50;;;3.00;;
34565;SDS011;20803;42.676;26.348;2022-10-17T14:32:54;6.37;;;3.20;;
34565;SDS011;20803;42.676;26.348;2022-10-17T14:35:22;3.80;;;2.73;;
34565;SDS011;20803;42.676;26.348;2022-10-17T14:37:48;5.43;;;3.00;;
34565;SDS011;20803;42.676;26.348;2022-10-17T14:42:41;4.27;;;2.93;;
34565;SDS011;20803;42.676;26.348;2022-10-17T14:45:07;4.30;;;2.90;;
34565;SDS011;20803;42.676;26.348;2022-10-17T14:47:38;5.47;;;3.23;;
34565;SDS011;20803;42.676;26.348;2022-10-17T14:52:35;3.63;;;2.77;;
34565;SDS011;20803;42.676;26.348;2022-10-17T14:57:51;4.90;;;3.20;;
34565;SDS011;20803;42.676;26.348;2022-10-17T15:00:18;4.30;;;2.80;;
34565;SDS011;20803;42.676;26.348;2022-10-17T15:02:45;10.33;;;4.07;;
34565;SDS011;20803;42.676;26.348;2022-10-17T15:05:12;5.80;;;2.77;;
34565;SDS011;20803;42.676;26.348;2022-10-17T15:07:38;4.70;;;3.20;;
34565;SDS011;20803;42.676;26.348;2022-10-17T15:10:04;5.47;;;2.90;;
34565;SDS011;20803;42.676;26.348;2022-10-17T15:12:31;3.47;;;2.77;;
34565;SDS011;20803;42.676;26.348;2022-10-17T15:14:56;4.97;;;3.30;;
34565;SDS011;20803;42.676;26.348;2022-10-17T15:17:23;5.13;;;3.40;;
34565;SDS011;20803;42.676;26.348;2022-10-17T15:19:51;8.47;;;3.50;;
34565;SDS011;20803;42.676;26.348;2022-10-17T15:22:17;8.80;;;3.30;;
34565;SDS011;20803;42.676;26.348;2022-10-17T15:24:43;5.67;;;3.23;;
34565;SDS011;20803;42.676;26.348;2022-10-17T15:27:16;6.43;;;3.73;;
34565;SDS011;20803;42.676;26.348;2022-10-17T15:29:44;5.80;;;3.10;;
34565;SDS011;20803;42.676;26.348;2022-10-17T15:32:12;7.17;;;3.10;;
34565;SDS011;20803;42.676;26.348;2022-10-17T15:34:38;4.43;;;2.70;;
34565;SDS011;20803;42.676;26.348;2022-10-17T15:37:04;10.17;;;3.50;;
34565;SDS011;20803;42.676;26.348;2022-10-17T15:39:31;5.90;;;3.07;;
34565;SDS011;20803;42.676;26.348;2022-10-17T15:41:57;8.40;;;3.43;;
34565;SDS011;20803;42.676;26.348;2022-10-17T15:44:23;8.23;;;2.90;;
34565;SDS011;20803;42.676;26.348;2022-10-17T15:46:49;4.77;;;3.33;;
34565;SDS011;20803;42.676;26.348;2022-10-17T15:49:15;6.23;;;3.90;;
34565;SDS011;20803;42.676;26.348;2022-10-17T15:51:43;7.50;;;3.97;;
34565;SDS011;20803;42.676;26.348;2022-10-17T15:54:09;5.80;;;3.70;;
34565;SDS011;20803;42.676;26.348;2022-10-17T15:56:36;6.67;;;3.37;;
34565;SDS011;20803;42.676;26.348;2022-10-17T15:59:05;3.97;;;3.20;;
34565;SDS011;20803;42.676;26.348;2022-10-17T16:01:36;4.57;;;3.23;;
34565;SDS011;20803;42.676;26.348;2022-10-17T16:04:03;7.53;;;3.70;;
34565;SDS011;20803;42.676;26.348;2022-10-17T16:06:28;7.33;;;3.13;;
34565;SDS011;20803;42.676;26.348;2022-10-17T16:08:54;7.23;;;3.60;;
34565;SDS011;20803;42.676;26.348;2022-10-17T16:11:23;10.27;;;3.50;;
34565;SDS011;20803;42.676;26.348;2022-10-17T16:13:50;4.40;;;3.43;;
34565;SDS011;20803;42.676;26.348;2022-10-17T16:16:18;12.10;;;3.77;;
34565;SDS011;20803;42.676;26.348;2022-10-17T16:18:44;4.67;;;3.03;;
34565;SDS011;20803;42.676;26.348;2022-10-17T16:21:11;6.23;;;3.23;;
34565;SDS011;20803;42.676;26.348;2022-10-17T16:23:38;7.60;;;3.20;;
34565;SDS011;20803;42.676;26.348;2022-10-17T16:26:05;13.60;;;3.90;;
34565;SDS011;20803;42.676;26.348;2022-10-17T16:28:32;6.00;;;3.43;;
34565;SDS011;20803;42.676;26.348;2022-10-17T16:30:57;8.47;;;3.93;;
34565;SDS011;20803;42.676;26.348;2022-10-17T16:33:23;5.40;;;3.10;;
34565;SDS011;20803;42.676;26.348;2022-10-17T16:35:48;6.97;;;3.40;;
34565;SDS011;20803;42.676;26.348;2022-10-17T16:38:14;6.93;;;3.43;;
34565;SDS011;20803;42.676;26.348;2022-10-17T16:40:39;4.53;;;2.90;;
34565;SDS011;20803;42.676;26.348;2022-10-17T16:43:05;6.40;;;3.17;;
34565;SDS011;20803;42.676;26.348;2022-10-17T16:45:31;4.17;;;3.17;;
34565;SDS011;20803;42.676;26.348;2022-10-17T16:47:57;5.70;;;3.10;;
34565;SDS011;20803;42.676;26.348;2022-10-17T16:50:22;4.50;;;3.20;;
34565;SDS011;20803;42.676;26.348;2022-10-17T16:52:48;8.47;;;3.77;;
34565;SDS011;20803;42.676;26.348;2022-10-17T16:55:14;8.77;;;3.27;;